createdAt,value
2023-02-25T00:01:08.707Z,4.81
2023-02-25T00:03:40.740Z,4.81
2023-02-25T00:06:14.620Z,4.78
2023-02-25T00:08:47.911Z,4.76
2023-02-25T00:11:20.754Z,4.76
2023-02-25T00:13:52.482Z,4.74
2023-02-25T00:16:25.622Z,4.74
2023-02-25T00:18:59.200Z,4.74
2023-02-25T00:21:31.301Z,4.72
2023-02-25T00:24:15.653Z,4.72
2023-02-25T00:26:48.305Z,4.71
2023-02-25T00:29:20.170Z,4.72
2023-02-25T00:31:52.188Z,4.73
2023-02-25T00:34:24.193Z,4.73
2023-02-25T00:36:56.003Z,4.74
2023-02-25T00:39:42.768Z,4.77
2023-02-25T00:42:15.691Z,4.80
2023-02-25T00:44:48.562Z,4.80
2023-02-25T00:47:21.544Z,4.73
2023-02-25T00:49:53.394Z,4.72
2023-02-25T00:52:25.073Z,4.70
2023-02-25T00:54:56.781Z,4.71
2023-02-25T00:57:28.478Z,4.71
2023-02-25T01:00:00.251Z,4.67
2023-02-25T01:02:31.976Z,4.67
2023-02-25T01:05:03.817Z,4.68
2023-02-25T01:07:35.600Z,4.68
2023-02-25T01:10:08.524Z,4.66
2023-02-25T01:12:40.312Z,4.64
2023-02-25T01:15:13.631Z,4.64
2023-02-25T01:17:45.293Z,4.65
2023-02-25T01:20:20.066Z,4.66
2023-02-25T01:22:51.772Z,4.66
2023-02-25T01:25:25.678Z,4.61
2023-02-25T01:27:58.173Z,4.61
2023-02-25T01:30:29.846Z,4.59
2023-02-25T01:33:03.464Z,4.51
2023-02-25T01:35:36.573Z,4.44
2023-02-25T01:38:08.238Z,4.41
2023-02-25T01:40:39.974Z,4.39
2023-02-25T01:43:16.511Z,4.35
2023-02-25T01:45:48.892Z,4.33
2023-02-25T01:48:22.261Z,4.32
2023-02-25T01:50:58.253Z,4.30
2023-02-25T01:53:32.384Z,4.28
2023-02-25T01:56:04.880Z,4.26
2023-02-25T01:58:37.072Z,4.20
2023-02-25T02:01:09.551Z,4.17
2023-02-25T02:03:41.816Z,4.17
2023-02-25T02:06:16.730Z,4.20
2023-02-25T02:08:49.023Z,4.22
2023-02-25T02:11:20.875Z,4.22
2023-02-25T02:13:55.696Z,4.19
2023-02-25T02:16:39.528Z,4.16
2023-02-25T02:19:20.892Z,4.10
2023-02-25T02:22:01.857Z,4.00
2023-02-25T02:24:59.392Z,3.96
2023-02-25T02:27:38.402Z,3.98
2023-02-25T02:30:26.324Z,3.99
2023-02-25T02:33:04.825Z,4.04
2023-02-25T02:35:43.759Z,4.06
2023-02-25T02:38:21.222Z,4.09
2023-02-25T02:40:56.637Z,4.07
2023-02-25T02:43:37.811Z,4.02
2023-02-25T02:46:13.775Z,3.98
2023-02-25T02:48:48.023Z,3.98
2023-02-25T02:51:23.028Z,3.96
2023-02-25T02:53:57.956Z,3.98
2023-02-25T02:56:30.530Z,3.99
2023-02-25T02:59:06.299Z,4.01
2023-02-25T03:01:39.971Z,4.05
2023-02-25T03:04:14.186Z,4.09
2023-02-25T03:06:49.434Z,4.12
2023-02-25T03:09:23.779Z,4.11
2023-02-25T03:11:55.833Z,4.11
2023-02-25T03:14:27.770Z,4.10
2023-02-25T03:17:02.300Z,4.10
2023-02-25T03:19:40.636Z,4.09
2023-02-25T03:22:15.403Z,4.12
2023-02-25T03:24:51.422Z,4.10
2023-02-25T03:27:28.836Z,4.04
2023-02-25T03:30:08.022Z,3.99
2023-02-25T03:32:41.072Z,3.99
2023-02-25T03:35:14.060Z,3.99
2023-02-25T03:37:47.621Z,4.02
2023-02-25T03:40:20.990Z,4.06
2023-02-25T03:42:54.606Z,4.11
2023-02-25T03:45:27.055Z,4.18
2023-02-25T03:48:00.601Z,4.22
2023-02-25T03:50:35.210Z,4.21
2023-02-25T03:53:08.983Z,4.13
2023-02-25T03:56:05.358Z,4.05
2023-02-25T03:58:39.295Z,4.01
2023-02-25T04:01:17.031Z,4.02
2023-02-25T04:03:49.264Z,4.05
2023-02-25T04:06:24.504Z,4.03
2023-02-25T04:08:56.493Z,4.04
2023-02-25T04:11:28.442Z,4.05
2023-02-25T04:14:00.226Z,4.04
2023-02-25T04:16:32.447Z,3.99
2023-02-25T04:19:05.113Z,3.91
2023-02-25T04:21:37.838Z,3.85
2023-02-25T04:24:10.502Z,3.84
2023-02-25T04:26:42.192Z,3.83
2023-02-25T04:29:13.927Z,3.75
2023-02-25T04:31:45.802Z,3.67
2023-02-25T04:34:17.732Z,3.58
2023-02-25T04:36:49.566Z,3.53
2023-02-25T04:39:21.733Z,3.45
2023-02-25T04:41:53.382Z,3.38
2023-02-25T04:44:25.174Z,3.30
2023-02-25T04:46:57.338Z,3.20
2023-02-25T04:49:29.071Z,3.12
2023-02-25T04:52:00.772Z,3.07
2023-02-25T04:54:32.605Z,3.06
2023-02-25T04:57:04.235Z,3.03
2023-02-25T04:59:36.053Z,2.97
2023-02-25T05:02:08.465Z,2.97
2023-02-25T05:04:41.663Z,2.97
2023-02-25T05:07:13.524Z,2.96
2023-02-25T05:09:45.283Z,2.94
2023-02-25T05:12:16.969Z,2.90
2023-02-25T05:14:48.768Z,2.88
2023-02-25T05:17:20.444Z,2.87
2023-02-25T05:19:52.298Z,2.87
2023-02-25T05:22:24.053Z,2.87
2023-02-25T05:24:55.833Z,2.86
2023-02-25T05:27:27.540Z,2.85
2023-02-25T05:29:59.238Z,2.84
2023-02-25T05:32:32.634Z,2.88
2023-02-25T05:35:04.472Z,2.92
2023-02-25T05:37:36.191Z,2.91
2023-02-25T05:40:10.262Z,2.88
2023-02-25T05:42:42.228Z,2.87
2023-02-25T05:45:14.120Z,2.83
2023-02-25T05:47:45.882Z,2.79
2023-02-25T05:50:17.683Z,2.77
2023-02-25T05:52:49.354Z,2.79
2023-02-25T05:55:21.873Z,2.82
2023-02-25T05:57:53.526Z,2.85
2023-02-25T06:00:25.810Z,2.89
2023-02-25T06:02:57.513Z,2.92
2023-02-25T06:05:30.355Z,2.90
2023-02-25T06:08:02.491Z,2.87
2023-02-25T06:10:38.367Z,2.84
2023-02-25T06:13:10.907Z,2.83
2023-02-25T06:15:43.644Z,2.81
2023-02-25T06:18:15.372Z,2.84
2023-02-25T06:20:47.258Z,2.88
2023-02-25T06:23:18.980Z,2.90
2023-02-25T06:25:50.752Z,2.96
2023-02-25T06:28:22.444Z,2.97
2023-02-25T06:30:54.261Z,2.93
2023-02-25T06:33:26.088Z,2.91
2023-02-25T06:35:58.904Z,2.91
2023-02-25T06:38:30.646Z,2.94
2023-02-25T06:41:05.873Z,2.98
2023-02-25T06:43:38.190Z,3.06
2023-02-25T06:46:12.307Z,3.11
2023-02-25T06:48:44.237Z,3.13
2023-02-25T06:51:16.110Z,3.15
2023-02-25T06:53:48.668Z,3.18
2023-02-25T06:56:22.014Z,3.17
2023-02-25T06:58:54.238Z,3.17
2023-02-25T07:01:26.320Z,3.18
2023-02-25T07:03:58.022Z,3.24
2023-02-25T07:06:29.914Z,3.30
2023-02-25T07:09:01.623Z,3.31
2023-02-25T07:11:35.791Z,3.36
2023-02-25T07:14:08.096Z,3.41
2023-02-25T07:16:39.813Z,3.46
2023-02-25T07:19:11.513Z,3.48
2023-02-25T07:21:43.314Z,3.49
2023-02-25T07:24:15.270Z,3.52
2023-02-25T07:26:47.043Z,3.56
2023-02-25T07:29:19.082Z,3.61
2023-02-25T07:31:50.831Z,3.64
2023-02-25T07:34:22.640Z,3.65
2023-02-25T07:36:54.396Z,3.64
2023-02-25T07:39:26.037Z,3.61
2023-02-25T07:41:57.759Z,3.60
2023-02-25T07:44:29.375Z,3.61
2023-02-25T08:15:05.901Z,3.14
2023-02-25T08:17:38.017Z,3.13
2023-02-25T08:20:14.321Z,3.16
2023-02-25T08:22:46.053Z,3.20
2023-02-25T08:25:18.054Z,3.26
2023-02-25T08:27:49.814Z,3.31
2023-02-25T08:30:22.766Z,3.38
2023-02-25T08:32:54.636Z,3.48
2023-02-25T08:35:27.124Z,3.56
2023-02-25T08:37:58.799Z,3.63
2023-02-25T08:40:31.931Z,3.65
2023-02-25T08:43:03.609Z,3.69
2023-02-25T08:45:35.453Z,3.76
2023-02-25T08:48:07.535Z,3.83
2023-02-25T08:50:39.296Z,3.96
2023-02-25T08:53:12.192Z,4.09
2023-02-25T08:55:44.219Z,4.17
2023-02-25T08:58:15.928Z,4.25
2023-02-25T09:00:51.960Z,4.28
2023-02-25T09:03:23.794Z,4.32
2023-02-25T09:05:56.966Z,4.36
2023-02-25T09:08:29.139Z,4.43
2023-02-25T09:11:00.813Z,4.53
2023-02-25T09:13:32.601Z,4.63
2023-02-25T09:16:04.778Z,4.71
2023-02-25T09:18:36.846Z,4.77
2023-02-25T09:21:08.652Z,4.82
2023-02-25T09:23:40.354Z,4.85
2023-02-25T09:26:12.162Z,4.92
2023-02-25T09:28:43.964Z,5.01
2023-02-25T09:31:15.884Z,5.10
2023-02-25T09:33:48.300Z,5.19
2023-02-25T09:36:21.643Z,5.28
2023-02-25T09:38:54.098Z,5.33
2023-02-25T09:41:29.161Z,5.43
2023-02-25T09:44:06.696Z,5.54
2023-02-25T09:46:43.948Z,5.71
2023-02-25T09:49:19.749Z,5.89
2023-02-25T09:51:57.500Z,6.10
2023-02-25T09:54:34.376Z,6.31
2023-02-25T09:57:07.565Z,6.39
2023-02-25T09:59:39.769Z,6.35
2023-02-25T10:02:25.936Z,6.33
2023-02-25T10:05:07.510Z,6.29
2023-02-25T10:07:57.625Z,6.25
2023-02-25T10:10:39.230Z,6.28
2023-02-25T10:13:22.227Z,6.27
2023-02-25T10:16:02.378Z,6.23
2023-02-25T10:18:46.219Z,6.24
2023-02-25T10:21:28.314Z,6.27
2023-02-25T10:24:12.784Z,6.28
2023-02-25T10:26:48.909Z,6.33
2023-02-25T10:29:27.102Z,6.32
2023-02-25T10:32:01.439Z,6.30
2023-02-25T10:34:38.858Z,6.21
2023-02-25T10:37:15.628Z,6.03
2023-02-25T10:39:48.796Z,5.79
2023-02-25T10:42:20.470Z,5.64
2023-02-25T10:44:53.959Z,5.57
2023-02-25T10:47:32.677Z,5.52
2023-02-25T10:50:17.796Z,5.28
2023-02-25T10:52:57.646Z,5.00
2023-02-25T10:55:35.325Z,4.78
2023-02-25T10:58:08.080Z,4.57
2023-02-25T11:00:39.869Z,4.35
2023-02-25T11:03:23.658Z,4.12
2023-02-25T11:05:59.670Z,3.94
2023-02-25T11:08:34.241Z,3.87
2023-02-25T11:11:20.738Z,3.93
2023-02-25T11:14:05.284Z,4.08
2023-02-25T11:16:38.920Z,4.20
2023-02-25T11:19:18.177Z,4.30
2023-02-25T11:21:50.324Z,4.38
2023-02-25T11:24:31.386Z,4.45
2023-02-25T11:27:04.866Z,4.53
2023-02-25T11:29:38.700Z,4.61
2023-02-25T11:32:16.681Z,4.69
2023-02-25T11:34:52.527Z,4.71
2023-02-25T11:37:38.190Z,4.72
2023-02-25T11:40:24.943Z,4.70
2023-02-25T11:43:09.605Z,4.70
2023-02-25T11:45:48.491Z,4.73
2023-02-25T11:48:22.134Z,4.72
2023-02-25T11:50:59.225Z,4.76
2023-02-25T11:53:51.370Z,4.82
2023-02-25T11:56:27.825Z,4.91
2023-02-25T11:59:12.909Z,4.96
2023-02-25T12:01:56.210Z,5.01
2023-02-25T12:05:05.720Z,5.05
2023-02-25T12:08:12.576Z,5.08
2023-02-25T12:11:13.463Z,5.14
2023-02-25T12:14:14.869Z,5.21
2023-02-25T12:17:18.395Z,5.32
2023-02-25T12:20:19.717Z,5.46
2023-02-25T12:23:20.108Z,5.54
2023-02-25T12:25:59.247Z,5.56
2023-02-25T12:29:01.276Z,5.51
2023-02-25T12:31:52.043Z,5.39
2023-02-25T12:34:44.689Z,5.30
2023-02-25T12:37:29.237Z,5.19
2023-02-25T12:40:11.006Z,5.03
2023-02-25T12:42:59.256Z,4.82
2023-02-25T12:45:45.665Z,4.53
2023-02-25T12:48:51.703Z,4.31
2023-02-25T12:51:39.328Z,4.21
2023-02-25T12:54:27.467Z,4.15
2023-02-25T12:57:41.393Z,4.12
2023-02-25T13:00:30.253Z,4.10
2023-02-25T13:03:21.190Z,4.08
2023-02-25T13:06:24.787Z,4.08
2023-02-25T13:09:08.090Z,4.15
2023-02-25T13:12:10.431Z,4.31
2023-02-25T13:14:53.540Z,4.47
2023-02-25T13:17:54.889Z,4.65
2023-02-25T13:20:54.965Z,4.81
2023-02-25T13:23:45.290Z,4.93
2023-02-25T13:26:31.461Z,5.05
2023-02-25T13:29:31.210Z,5.12
2023-02-25T13:32:24.297Z,5.17
2023-02-25T13:35:01.030Z,5.15
2023-02-25T13:37:42.995Z,5.10
2023-02-25T13:40:36.323Z,5.05
2023-02-25T13:43:21.964Z,4.93
2023-02-25T13:46:02.321Z,4.81
2023-02-25T13:48:43.756Z,4.71
2023-02-25T13:51:33.587Z,4.61
2023-02-25T13:54:23.934Z,4.60
2023-02-25T13:57:00.321Z,4.72
2023-02-25T13:59:48.482Z,4.82
2023-02-25T14:02:35.013Z,4.83
2023-02-25T14:05:27.427Z,4.81
2023-02-25T14:08:13.185Z,4.68
2023-02-25T14:10:51.058Z,4.55
2023-02-25T14:13:42.463Z,4.50
2023-02-25T14:16:34.194Z,4.50
2023-02-25T14:19:17.902Z,4.51
2023-02-25T14:22:05.776Z,4.51
2023-02-25T14:24:39.797Z,4.51
2023-02-25T14:27:21.016Z,4.52
2023-02-25T14:30:06.525Z,4.53
2023-02-25T14:32:49.325Z,4.50
2023-02-25T14:35:34.098Z,4.51
2023-02-25T14:38:11.155Z,4.56
2023-02-25T14:40:48.152Z,4.61
2023-02-25T14:43:33.741Z,4.65
2023-02-25T14:46:18.530Z,4.65
2023-02-25T14:48:56.401Z,4.60
2023-02-25T14:51:45.233Z,4.52
2023-02-25T14:54:48.640Z,4.50
2023-02-25T14:57:53.283Z,4.51
2023-02-25T15:01:02.253Z,4.49
2023-02-25T15:03:52.880Z,4.49
2023-02-25T15:06:36.617Z,4.48
2023-02-25T15:09:49.441Z,4.45
2023-02-25T15:12:30.670Z,4.38
2023-02-25T15:15:28.909Z,4.32
2023-02-25T15:18:23.635Z,4.30
2023-02-25T15:20:56.707Z,4.27
2023-02-25T15:23:50.610Z,4.23
2023-02-25T15:26:26.106Z,4.17
2023-02-25T15:28:58.917Z,4.11
2023-02-25T15:31:34.152Z,4.01
2023-02-25T15:34:31.228Z,3.95
2023-02-25T15:37:32.531Z,3.93
2023-02-25T15:40:50.940Z,3.93
2023-02-25T15:43:45.225Z,3.90
2023-02-25T15:46:41.849Z,3.84
2023-02-25T15:49:22.718Z,3.77
2023-02-25T15:51:53.779Z,3.68
2023-02-25T15:54:50.207Z,3.57
2023-02-25T15:57:42.027Z,3.49
2023-02-25T16:00:56.015Z,3.47
2023-02-25T16:03:46.496Z,3.44
2023-02-25T16:06:20.417Z,3.46
2023-02-25T16:09:06.370Z,3.48
2023-02-25T16:11:40.354Z,3.46
2023-02-25T16:14:19.000Z,3.45
2023-02-25T16:16:52.455Z,3.38
2023-02-25T16:19:26.094Z,3.34
2023-02-25T16:22:01.118Z,3.31
2023-02-25T16:24:33.509Z,3.34
2023-02-25T16:27:08.942Z,3.39
2023-02-25T16:29:53.076Z,3.45
2023-02-25T16:32:32.717Z,3.49
2023-02-25T16:35:10.713Z,3.50
2023-02-25T16:37:49.534Z,3.51
2023-02-25T16:40:26.923Z,3.50
2023-02-25T16:43:00.267Z,3.48
2023-02-25T16:45:35.259Z,3.45
2023-02-25T16:48:09.659Z,3.50
2023-02-25T16:50:41.597Z,3.54
2023-02-25T16:53:18.981Z,3.54
2023-02-25T16:55:50.849Z,3.50
2023-02-25T16:58:27.673Z,3.42
2023-02-25T17:01:01.787Z,3.36
2023-02-25T17:03:41.123Z,3.34
2023-02-25T17:06:19.018Z,3.34
2023-02-25T17:08:52.204Z,3.33
2023-02-25T17:11:25.506Z,3.33
2023-02-25T17:13:59.055Z,3.32
2023-02-25T17:16:33.430Z,3.31
2023-02-25T17:19:06.507Z,3.30
2023-02-25T17:21:39.645Z,3.27
2023-02-25T17:24:16.367Z,3.24
2023-02-25T17:26:50.790Z,3.26
2023-02-25T17:29:22.664Z,3.28
2023-02-25T17:31:55.897Z,3.31
2023-02-25T17:34:33.063Z,3.34
2023-02-25T17:37:07.650Z,3.39
2023-02-25T17:39:41.205Z,3.40
2023-02-25T17:42:30.318Z,3.36
2023-02-25T17:45:03.279Z,3.30
2023-02-25T17:47:37.174Z,3.23
2023-02-25T17:50:25.940Z,3.18
2023-02-25T17:52:58.516Z,3.16
2023-02-25T17:55:32.532Z,3.16
2023-02-25T17:58:04.827Z,3.18
2023-02-25T18:00:38.969Z,3.18
2023-02-25T18:03:17.315Z,3.20
2023-02-25T18:05:54.587Z,3.20
2023-02-25T18:08:26.655Z,3.19
2023-02-25T18:11:01.622Z,3.19
2023-02-25T18:13:38.106Z,3.16
2023-02-25T18:16:39.432Z,3.11
2023-02-25T18:19:27.091Z,3.12
2023-02-25T18:21:58.959Z,3.17
2023-02-25T18:24:33.497Z,3.18
2023-02-25T18:27:29.382Z,3.18
2023-02-25T18:30:09.588Z,3.19
2023-02-25T18:32:41.533Z,3.15
2023-02-25T18:35:14.088Z,3.08
2023-02-25T18:37:46.892Z,3.03
2023-02-25T18:40:21.745Z,3.00
2023-02-25T18:42:51.927Z,2.99
2023-02-25T18:45:25.768Z,2.97
2023-02-25T18:47:57.890Z,2.96
2023-02-25T18:50:32.050Z,2.96
2023-02-25T18:53:04.176Z,2.94
2023-02-25T18:55:36.021Z,2.91
2023-02-25T18:58:10.777Z,2.87
2023-02-25T19:00:41.061Z,2.84
2023-02-25T19:03:17.476Z,2.82
2023-02-25T19:05:49.398Z,2.83
2023-02-25T19:08:21.303Z,2.84
2023-02-25T19:10:54.449Z,2.84
2023-02-25T19:13:32.137Z,2.84
2023-02-25T19:16:04.159Z,2.88
2023-02-25T19:18:36.966Z,2.92
2023-02-25T19:21:10.738Z,2.97
2023-02-25T19:23:42.677Z,3.01
2023-02-25T19:26:14.681Z,3.03
2023-02-25T19:28:46.443Z,3.05
2023-02-25T19:31:18.977Z,3.08
2023-02-25T19:33:50.793Z,3.09
2023-02-25T19:36:22.874Z,3.09
2023-02-25T19:38:54.949Z,3.12
2023-02-25T19:41:26.722Z,3.09
2023-02-25T19:43:58.395Z,3.10
2023-02-25T19:46:30.176Z,3.09
2023-02-25T19:49:01.883Z,3.09
2023-02-25T19:51:33.593Z,3.10
2023-02-25T19:54:05.427Z,3.05
2023-02-25T19:56:37.223Z,3.03
2023-02-25T19:59:11.968Z,3.02
2023-02-25T20:01:42.243Z,3.01
2023-02-25T20:04:13.987Z,3.02
2023-02-25T20:06:45.695Z,3.01
2023-02-25T20:09:19.467Z,2.98
2023-02-25T20:11:52.952Z,2.97
2023-02-25T20:14:28.052Z,2.96
2023-02-25T20:17:01.083Z,2.96
2023-02-25T20:19:33.576Z,2.97
2023-02-25T20:22:06.961Z,3.00
2023-02-25T20:24:39.336Z,3.02
2023-02-25T20:27:11.094Z,2.99
2023-02-25T20:29:42.943Z,2.95
2023-02-25T20:32:15.100Z,2.90
2023-02-25T20:34:47.896Z,2.86
2023-02-25T20:37:22.581Z,2.85
2023-02-25T20:39:56.281Z,2.83
2023-02-25T20:42:30.880Z,2.80
2023-02-25T20:45:03.235Z,2.77
2023-02-25T20:47:36.579Z,2.76
2023-02-25T20:50:11.073Z,2.78
2023-02-25T20:52:43.039Z,2.78
2023-02-25T20:55:14.957Z,2.75
2023-02-25T20:57:46.737Z,2.73
2023-02-25T21:00:20.751Z,2.72
2023-02-25T21:02:52.557Z,2.71
2023-02-25T21:05:24.370Z,2.73
2023-02-25T21:07:57.244Z,2.72
2023-02-25T21:10:29.241Z,2.76
2023-02-25T21:13:01.237Z,2.79
2023-02-25T21:15:32.971Z,2.75
2023-02-25T21:18:04.921Z,2.71
2023-02-25T21:20:36.672Z,2.68
2023-02-25T21:23:11.185Z,2.65
2023-02-25T21:25:43.241Z,2.64
2023-02-25T21:28:14.997Z,2.63
2023-02-25T21:30:46.839Z,2.62
2023-02-25T21:33:19.361Z,2.63
2023-02-25T21:35:55.217Z,2.62
2023-02-25T21:38:27.340Z,2.56
2023-02-25T21:41:04.751Z,2.49
2023-02-25T21:43:36.501Z,2.43
2023-02-25T21:46:11.757Z,2.37
2023-02-25T21:48:44.098Z,2.36
2023-02-25T21:51:20.144Z,2.32
2023-02-25T21:53:56.616Z,2.29
2023-02-25T21:56:29.137Z,2.25
2023-02-25T21:59:05.384Z,2.22
2023-02-25T22:01:39.018Z,2.19
2023-02-25T22:04:11.361Z,2.13
2023-02-25T22:06:45.165Z,2.12
2023-02-25T22:09:18.038Z,2.11
2023-02-25T22:11:49.794Z,2.09
2023-02-25T22:14:21.843Z,2.10
2023-02-25T22:16:53.554Z,2.11
2023-02-25T22:19:25.416Z,2.11
2023-02-25T22:21:57.085Z,2.09
2023-02-25T22:24:28.985Z,2.06
2023-02-25T22:27:00.836Z,2.06
2023-02-25T22:29:32.623Z,2.04
2023-02-25T22:32:04.586Z,2.05
2023-02-25T22:34:36.477Z,2.06
2023-02-25T22:37:08.297Z,2.03
2023-02-25T22:39:39.972Z,1.99
2023-02-25T22:42:11.712Z,1.94
2023-02-25T22:44:43.464Z,1.91
2023-02-25T22:47:15.220Z,1.90
2023-02-25T22:49:46.984Z,1.89
2023-02-25T22:52:18.921Z,1.90
2023-02-25T22:54:50.688Z,1.92
2023-02-25T22:57:22.411Z,1.89
2023-02-25T22:59:54.117Z,1.89
2023-02-25T23:02:25.882Z,1.85
2023-02-25T23:04:57.654Z,1.83
2023-02-25T23:07:29.537Z,1.79
2023-02-25T23:10:01.235Z,1.76
2023-02-25T23:12:33.652Z,1.73
2023-02-25T23:15:05.727Z,1.72
2023-02-25T23:17:38.591Z,1.72
2023-02-25T23:20:13.053Z,1.70
2023-02-25T23:22:45.201Z,1.67
2023-02-25T23:25:18.106Z,1.64
2023-02-25T23:27:50.151Z,1.64
2023-02-25T23:30:22.282Z,1.62
2023-02-25T23:32:54.008Z,1.61
2023-02-25T23:35:26.063Z,1.55
2023-02-25T23:37:57.738Z,1.53
2023-02-25T23:40:29.531Z,1.47
2023-02-25T23:43:01.319Z,1.43
2023-02-25T23:45:33.319Z,1.40
2023-02-25T23:48:05.170Z,1.41
2023-02-25T23:50:37.010Z,1.41
2023-02-25T23:53:08.801Z,1.38
2023-02-25T23:55:40.577Z,1.32
2023-02-25T23:58:12.343Z,1.28
